createdAt,value
2022-08-12T04:46:06.458Z,2.17
2022-08-12T04:48:33.139Z,2.60
2022-08-12T04:50:59.757Z,2.20
2022-08-12T04:53:30.926Z,1.90
2022-08-12T04:55:57.693Z,1.83
2022-08-12T04:58:29.197Z,2.38
2022-08-12T05:00:56.655Z,2.40
2022-08-12T05:03:26.429Z,3.08
2022-08-12T05:05:53.301Z,2.10
2022-08-12T05:08:19.956Z,2.10
2022-08-12T05:10:47.931Z,2.10
2022-08-12T05:13:19.767Z,2.42
2022-08-12T05:16:05.096Z,2.08
2022-08-12T05:18:39.724Z,1.83
2022-08-12T05:21:10.236Z,1.88
2022-08-12T05:23:37.989Z,2.30
2022-08-12T05:26:06.060Z,2.10
2022-08-12T05:28:33.128Z,2.20
2022-08-12T05:31:01.718Z,2.10
2022-08-12T05:33:37.562Z,2.08
2022-08-12T05:36:08.973Z,1.98
2022-08-12T05:38:54.702Z,2.05
2022-08-12T05:41:21.518Z,2.00
2022-08-12T05:43:53.088Z,2.30
2022-08-12T05:46:20.633Z,2.30
2022-08-12T05:48:49.310Z,2.40
2022-08-12T05:51:18.950Z,3.03
2022-08-12T05:53:45.709Z,2.35
2022-08-12T05:56:22.969Z,2.10
2022-08-12T05:58:51.768Z,1.73
2022-08-12T06:02:10.418Z,2.35
2022-08-12T06:04:09.401Z,2.20
2022-08-12T06:06:39.702Z,1.92
2022-08-12T06:09:06.315Z,2.25
2022-08-12T06:11:32.797Z,2.57
2022-08-12T06:13:59.275Z,2.35
2022-08-12T06:16:27.120Z,2.35
2022-08-12T06:18:54.578Z,2.50
2022-08-12T06:21:23.409Z,2.97
2022-08-12T06:23:51.316Z,2.97
2022-08-12T06:26:20.249Z,3.30
2022-08-12T06:28:50.995Z,3.20
2022-08-12T06:31:28.250Z,3.30
2022-08-12T06:34:01.028Z,2.88
2022-08-12T06:36:42.967Z,3.00
2022-08-12T06:39:14.597Z,3.47
2022-08-12T06:42:33.163Z,3.42
2022-08-12T06:44:58.425Z,3.25
2022-08-12T06:47:24.911Z,3.00
2022-08-12T06:49:52.502Z,3.30
2022-08-12T06:52:24.888Z,3.42
2022-08-12T06:54:53.515Z,2.85
2022-08-12T06:58:06.438Z,2.72
2022-08-12T07:00:08.510Z,3.05
2022-08-12T07:02:37.187Z,3.57
2022-08-12T07:05:03.997Z,3.72
2022-08-12T07:07:30.468Z,3.50
2022-08-12T07:10:05.717Z,3.40
2022-08-12T07:12:34.640Z,2.95
2022-08-12T07:15:01.782Z,3.23
2022-08-12T07:17:35.462Z,5.03
2022-08-12T07:20:04.733Z,3.95
2022-08-12T07:22:31.513Z,3.50
2022-08-12T07:25:16.338Z,3.72
2022-08-12T07:27:43.418Z,3.33
2022-08-12T07:30:10.539Z,3.70
2022-08-12T07:32:37.199Z,3.60
2022-08-12T07:35:04.280Z,4.22
2022-08-12T07:37:31.110Z,3.35
2022-08-12T07:40:00.625Z,4.10
2022-08-12T07:42:28.204Z,3.45
2022-08-12T07:44:55.885Z,3.58
2022-08-12T07:47:22.979Z,3.08
2022-08-12T07:50:05.081Z,3.25
2022-08-12T07:52:38.537Z,3.00
2022-08-12T07:55:05.904Z,3.90
2022-08-12T07:57:32.605Z,3.60
2022-08-12T08:00:08.587Z,3.60
2022-08-12T08:02:36.317Z,3.53
2022-08-12T08:05:04.376Z,3.27
2022-08-12T08:07:31.204Z,3.70
2022-08-12T08:09:59.988Z,3.28
2022-08-12T08:12:48.462Z,3.38
2022-08-12T08:15:16.048Z,3.40
2022-08-12T08:18:03.393Z,3.17
2022-08-12T08:20:34.164Z,3.10
2022-08-12T08:23:07.971Z,3.45
2022-08-12T08:25:38.338Z,3.33
2022-08-12T08:28:14.035Z,3.40
2022-08-12T08:30:45.546Z,3.40
2022-08-12T08:33:59.213Z,3.60
2022-08-12T08:36:02.255Z,3.40
2022-08-12T08:38:33.011Z,3.50
2022-08-12T08:42:13.981Z,3.20
2022-08-12T08:44:10.665Z,3.17
2022-08-12T08:46:38.249Z,3.40
2022-08-12T08:49:05.631Z,3.40
2022-08-12T08:51:32.560Z,3.75
2022-08-12T08:53:59.112Z,3.08
2022-08-12T08:56:26.766Z,3.27
2022-08-12T08:58:53.214Z,3.55
2022-08-12T09:01:22.387Z,3.20
2022-08-12T09:05:08.344Z,3.17
2022-08-12T09:06:37.841Z,3.53
2022-08-12T09:09:14.527Z,3.30
2022-08-12T09:14:46.841Z,3.28
2022-08-12T09:17:42.816Z,3.15
2022-08-12T09:20:15.904Z,3.13
2022-08-12T09:22:49.197Z,3.13
2022-08-12T09:25:25.110Z,3.10
2022-08-12T09:30:48.326Z,2.80
2022-08-12T09:33:18.621Z,2.70
2022-08-12T09:36:05.500Z,2.70
2022-08-12T09:38:33.595Z,2.80
2022-08-12T09:42:33.657Z,2.67
2022-08-12T09:44:37.988Z,3.17
2022-08-12T09:46:54.705Z,2.63
2022-08-12T09:49:24.558Z,2.90
2022-08-12T09:51:54.228Z,2.55
2022-08-12T09:54:33.091Z,2.75
2022-08-12T09:58:45.433Z,2.80
2022-08-12T10:00:12.975Z,2.90
2022-08-12T10:03:32.297Z,3.00
2022-08-12T10:06:27.323Z,2.90
2022-08-12T10:08:44.908Z,2.55
2022-08-12T10:12:10.503Z,3.15
2022-08-12T10:14:34.467Z,2.80
2022-08-12T10:17:03.318Z,2.77
2022-08-12T10:19:36.656Z,2.42
2022-08-12T10:22:06.090Z,3.08
2022-08-12T10:25:04.388Z,2.85
2022-08-12T10:28:05.334Z,2.70
2022-08-12T10:30:39.913Z,2.57
2022-08-12T10:33:18.844Z,2.92
2022-08-12T10:35:45.938Z,3.03
2022-08-12T10:38:38.230Z,2.50
2022-08-12T10:44:51.280Z,2.47
2022-08-12T10:48:01.152Z,2.53
2022-08-12T10:50:28.075Z,3.03
2022-08-12T10:52:56.171Z,2.58
2022-08-12T10:55:22.723Z,2.63
2022-08-12T10:58:14.316Z,2.60
2022-08-12T11:00:45.207Z,2.90
2022-08-12T11:04:31.295Z,2.55
2022-08-12T11:07:08.843Z,2.40
2022-08-12T11:08:57.619Z,2.53
2022-08-12T11:12:08.303Z,2.50
2022-08-12T11:14:50.566Z,2.20
2022-08-12T11:17:43.877Z,2.92
2022-08-12T11:19:53.711Z,2.17
2022-08-12T11:22:24.164Z,2.80
2022-08-12T11:24:51.307Z,2.27
2022-08-12T11:27:18.452Z,2.13
2022-08-12T11:30:00.446Z,2.25
2022-08-12T11:32:38.391Z,2.17
2022-08-12T11:35:06.490Z,2.22
2022-08-12T11:37:37.857Z,2.40
2022-08-12T11:40:20.105Z,2.40
2022-08-12T11:42:47.083Z,2.40
2022-08-12T11:45:17.138Z,2.00
2022-08-12T11:47:43.910Z,2.78
2022-08-12T11:50:11.577Z,2.47
2022-08-12T11:52:56.097Z,2.22
2022-08-12T11:55:24.322Z,2.20
2022-08-12T11:58:19.792Z,1.98
2022-08-12T12:03:44.126Z,2.87
2022-08-12T12:06:16.764Z,2.30
2022-08-12T12:08:48.437Z,2.35
2022-08-12T12:11:18.169Z,2.50
2022-08-12T12:14:08.775Z,2.45
2022-08-12T12:16:31.267Z,2.57
2022-08-12T12:19:00.157Z,2.05
2022-08-12T12:21:47.972Z,1.85
2022-08-12T12:24:13.200Z,1.95
2022-08-12T12:26:39.676Z,1.95
2022-08-12T12:30:19.314Z,2.40
2022-08-12T12:32:11.247Z,2.40
2022-08-12T12:34:38.960Z,2.13
2022-08-12T12:38:03.350Z,2.35
2022-08-12T12:40:13.970Z,2.00
2022-08-12T12:42:42.610Z,2.50
2022-08-12T12:45:19.389Z,2.70
2022-08-12T12:48:12.560Z,2.67
2022-08-12T12:50:42.535Z,2.70
2022-08-12T12:54:05.201Z,3.40
2022-08-12T12:56:05.621Z,2.77
2022-08-12T12:58:32.152Z,2.28
2022-08-12T13:01:04.467Z,2.95
2022-08-12T13:03:48.915Z,2.63
2022-08-12T13:06:16.216Z,2.95
2022-08-12T13:08:46.814Z,2.50
2022-08-12T13:11:14.656Z,2.08
2022-08-12T13:14:08.703Z,2.58
2022-08-12T13:16:30.258Z,2.70
2022-08-12T13:18:58.435Z,2.63
2022-08-12T13:21:33.179Z,2.40
2022-08-12T13:24:10.479Z,2.30
2022-08-12T13:26:37.819Z,2.35
2022-08-12T13:29:04.371Z,2.35
2022-08-12T13:31:30.869Z,2.70
2022-08-12T13:34:33.878Z,2.13
2022-08-12T13:36:50.770Z,2.13
2022-08-12T13:39:21.320Z,2.10
2022-08-12T13:41:49.586Z,2.13
2022-08-12T13:44:16.422Z,2.15
2022-08-12T13:46:43.486Z,2.30
2022-08-12T13:49:53.881Z,2.80
2022-08-12T13:52:10.995Z,2.33
2022-08-12T13:54:37.739Z,2.30
2022-08-12T13:57:04.854Z,2.25
2022-08-12T13:59:48.266Z,2.10
2022-08-12T14:02:15.867Z,2.30
2022-08-12T14:04:45.449Z,2.00
2022-08-12T14:07:23.293Z,2.13
2022-08-12T14:10:10.999Z,1.90
2022-08-12T14:12:40.184Z,1.97
2022-08-12T14:15:21.482Z,2.45
2022-08-12T14:18:30.960Z,2.00
2022-08-12T14:21:01.726Z,2.00
2022-08-12T14:24:05.570Z,2.25
2022-08-12T14:26:25.889Z,2.63
2022-08-12T14:29:01.771Z,1.92
2022-08-12T14:31:31.874Z,2.20
2022-08-12T14:33:59.321Z,1.90
2022-08-12T14:36:26.626Z,2.10
2022-08-12T14:38:54.974Z,2.40
2022-08-12T14:41:25.356Z,1.80
2022-08-12T14:44:06.374Z,1.83
2022-08-12T14:46:55.683Z,2.28
2022-08-12T14:50:01.429Z,2.20
2022-08-12T14:52:55.729Z,2.30
2022-08-12T14:57:57.203Z,2.45
2022-08-12T15:00:50.643Z,2.10
2022-08-12T15:03:23.185Z,1.92
2022-08-12T15:06:06.294Z,1.93
2022-08-12T15:08:39.370Z,2.00
2022-08-12T15:11:12.702Z,2.00
2022-08-12T15:13:45.619Z,2.25
2022-08-12T15:16:12.986Z,2.58
2022-08-12T15:18:55.076Z,2.10
2022-08-12T15:21:22.282Z,2.30
2022-08-12T15:23:55.460Z,2.30
2022-08-12T15:26:28.641Z,2.33
2022-08-12T15:28:57.757Z,2.33
2022-08-12T15:31:28.340Z,2.20
2022-08-12T15:34:11.009Z,2.10
2022-08-12T15:36:54.750Z,2.20
2022-08-12T15:39:22.333Z,2.60
2022-08-12T15:41:50.758Z,2.40
2022-08-12T15:44:42.334Z,2.17
2022-08-12T15:47:09.076Z,2.40
2022-08-12T15:49:55.118Z,2.78
2022-08-12T15:52:28.800Z,2.80
2022-08-12T15:54:58.490Z,2.30
2022-08-12T15:57:26.685Z,2.50
2022-08-12T16:00:06.873Z,2.50
2022-08-12T16:02:42.078Z,2.85
2022-08-12T16:06:13.107Z,2.80
2022-08-12T16:08:15.208Z,2.60
2022-08-12T16:10:44.757Z,2.80
2022-08-12T16:13:14.146Z,2.75
2022-08-12T16:15:51.045Z,2.67
2022-08-12T16:18:31.504Z,2.30
2022-08-12T16:20:58.185Z,2.45
2022-08-12T16:23:52.075Z,2.63
2022-08-12T16:26:15.500Z,2.47
2022-08-12T16:28:47.439Z,2.60
2022-08-12T16:31:22.494Z,2.40
2022-08-12T16:33:56.378Z,2.55
2022-08-12T16:36:30.531Z,2.27
2022-08-12T16:39:01.340Z,2.60
2022-08-12T16:41:28.522Z,2.25
2022-08-12T16:44:05.310Z,2.40
2022-08-12T16:46:33.735Z,2.33
2022-08-12T16:49:08.794Z,2.30
2022-08-12T16:51:41.759Z,2.45
2022-08-12T16:54:14.183Z,3.20
2022-08-12T16:56:55.231Z,2.42
2022-08-12T16:59:31.146Z,2.88
2022-08-12T17:02:31.374Z,2.50
2022-08-12T17:05:01.015Z,3.20
2022-08-12T17:07:36.129Z,2.58
2022-08-12T17:10:06.554Z,2.88
2022-08-12T17:12:33.077Z,2.42
2022-08-12T17:14:59.564Z,2.97
2022-08-12T17:17:39.406Z,2.60
2022-08-12T17:20:29.779Z,2.90
2022-08-12T17:22:56.420Z,2.53
2022-08-12T17:25:24.375Z,2.03
2022-08-12T17:27:57.223Z,2.63
